Terminal Aerodrome Forecast
Issued by NWS

Home | Current Version | Previous Version | Text Only | Print | Product List | Glossary Off
Versions: 1 2 3 4 5 6 7 8 9 10 11 12 13 14 15 16 17 18 19 20 21 22 23 24 25

000
FTUS43 KTOP 191700
TAFFOE
TAF
KFOE 191728Z 1918/2018 17010KT 5SM BR OVC006
     FM191900 18010KT P6SM FEW025
     FM201100 22005KT 5SM BR SCT003
     FM201500 22008KT P6SM FEW040=

USA.gov is the U.S. government's official web portal to all federal, state and local government web resources and services.